sensor_id;sensor_type;location;lat;lon;timestamp;P1;durP1;ratioP1;P2;durP2;ratioP2
50709;SDS011;37033;49.994;21.992;2022-12-13T00:01:17;24.10;;;12.00;;
50709;SDS011;37033;49.994;21.992;2022-12-13T00:04:08;21.50;;;12.10;;
50709;SDS011;37033;49.994;21.992;2022-12-13T00:06:59;25.00;;;12.30;;
50709;SDS011;37033;49.994;21.992;2022-12-13T00:09:49;25.30;;;12.50;;
50709;SDS011;37033;49.994;21.992;2022-12-13T00:12:39;20.90;;;10.30;;
50709;SDS011;37033;49.994;21.992;2022-12-13T00:15:28;25.30;;;13.20;;
50709;SDS011;37033;49.994;21.992;2022-12-13T00:18:18;28.20;;;14.20;;
50709;SDS011;37033;49.994;21.992;2022-12-13T00:21:12;26.70;;;12.70;;
50709;SDS011;37033;49.994;21.992;2022-12-13T00:24:06;23.40;;;11.70;;
50709;SDS011;37033;49.994;21.992;2022-12-13T00:26:56;23.90;;;11.00;;
50709;SDS011;37033;49.994;21.992;2022-12-13T00:29:46;23.00;;;12.50;;
50709;SDS011;37033;49.994;21.992;2022-12-13T00:32:36;21.70;;;11.10;;
50709;SDS011;37033;49.994;21.992;2022-12-13T00:35:26;25.40;;;12.40;;
50709;SDS011;37033;49.994;21.992;2022-12-13T00:38:16;20.10;;;10.90;;
50709;SDS011;37033;49.994;21.992;2022-12-13T00:41:10;19.90;;;10.80;;
50709;SDS011;37033;49.994;21.992;2022-12-13T00:44:02;24.90;;;12.00;;
50709;SDS011;37033;49.994;21.992;2022-12-13T00:46:53;25.10;;;13.90;;
50709;SDS011;37033;49.994;21.992;2022-12-13T00:49:42;24.60;;;12.10;;
50709;SDS011;37033;49.994;21.992;2022-12-13T00:52:33;21.90;;;11.10;;
50709;SDS011;37033;49.994;21.992;2022-12-13T00:55:23;18.80;;;11.50;;
50709;SDS011;37033;49.994;21.992;2022-12-13T00:58:13;17.70;;;10.90;;
50709;SDS011;37033;49.994;21.992;2022-12-13T01:01:03;25.50;;;11.30;;
50709;SDS011;37033;49.994;21.992;2022-12-13T01:03:55;19.40;;;10.60;;
50709;SDS011;37033;49.994;21.992;2022-12-13T01:06:46;18.80;;;10.50;;
50709;SDS011;37033;49.994;21.992;2022-12-13T01:09:37;22.20;;;10.40;;
50709;SDS011;37033;49.994;21.992;2022-12-13T01:12:28;18.80;;;10.00;;
50709;SDS011;37033;49.994;21.992;2022-12-13T01:15:19;19.80;;;10.20;;
50709;SDS011;37033;49.994;21.992;2022-12-13T01:18:09;18.10;;;10.50;;
50709;SDS011;37033;49.994;21.992;2022-12-13T01:21:01;19.30;;;9.50;;
50709;SDS011;37033;49.994;21.992;2022-12-13T01:23:53;19.00;;;10.20;;
50709;SDS011;37033;49.994;21.992;2022-12-13T01:26:47;18.20;;;10.60;;
50709;SDS011;37033;49.994;21.992;2022-12-13T01:29:37;18.20;;;10.20;;
50709;SDS011;37033;49.994;21.992;2022-12-13T01:32:27;14.50;;;8.30;;
50709;SDS011;37033;49.994;21.992;2022-12-13T01:35:17;16.30;;;8.70;;
50709;SDS011;37033;49.994;21.992;2022-12-13T01:38:07;18.30;;;8.20;;
50709;SDS011;37033;49.994;21.992;2022-12-13T01:40:57;15.00;;;8.70;;
50709;SDS011;37033;49.994;21.992;2022-12-13T01:43:51;12.80;;;7.10;;
50709;SDS011;37033;49.994;21.992;2022-12-13T01:49:31;12.60;;;7.90;;
50709;SDS011;37033;49.994;21.992;2022-12-13T01:52:21;12.40;;;7.70;;
50709;SDS011;37033;49.994;21.992;2022-12-13T01:55:12;10.50;;;6.20;;
50709;SDS011;37033;49.994;21.992;2022-12-13T01:58:05;13.60;;;7.80;;
50709;SDS011;37033;49.994;21.992;2022-12-13T02:00:55;10.00;;;6.00;;
50709;SDS011;37033;49.994;21.992;2022-12-13T02:03:46;11.20;;;6.50;;
50709;SDS011;37033;49.994;21.992;2022-12-13T02:06:37;10.50;;;6.50;;
50709;SDS011;37033;49.994;21.992;2022-12-13T02:09:31;10.90;;;5.50;;
50709;SDS011;37033;49.994;21.992;2022-12-13T02:12:22;10.60;;;7.00;;
50709;SDS011;37033;49.994;21.992;2022-12-13T02:15:14;10.60;;;6.30;;
50709;SDS011;37033;49.994;21.992;2022-12-13T02:18:09;8.00;;;5.80;;
50709;SDS011;37033;49.994;21.992;2022-12-13T02:21:17;12.00;;;6.80;;
50709;SDS011;37033;49.994;21.992;2022-12-13T02:27:53;9.00;;;5.80;;
50709;SDS011;37033;49.994;21.992;2022-12-13T02:30:55;11.00;;;6.40;;
50709;SDS011;37033;49.994;21.992;2022-12-13T02:33:51;10.20;;;6.60;;
50709;SDS011;37033;49.994;21.992;2022-12-13T02:36:49;7.10;;;4.50;;
50709;SDS011;37033;49.994;21.992;2022-12-13T02:39:47;9.90;;;5.70;;
50709;SDS011;37033;49.994;21.992;2022-12-13T02:42:46;8.20;;;5.30;;
50709;SDS011;37033;49.994;21.992;2022-12-13T02:45:43;6.20;;;4.50;;
50709;SDS011;37033;49.994;21.992;2022-12-13T02:48:36;7.20;;;5.40;;
50709;SDS011;37033;49.994;21.992;2022-12-13T02:51:29;8.20;;;5.10;;
50709;SDS011;37033;49.994;21.992;2022-12-13T02:54:19;9.70;;;5.00;;
50709;SDS011;37033;49.994;21.992;2022-12-13T03:00:19;9.20;;;6.00;;
50709;SDS011;37033;49.994;21.992;2022-12-13T03:03:14;10.50;;;6.10;;
50709;SDS011;37033;49.994;21.992;2022-12-13T03:06:15;7.30;;;5.40;;
50709;SDS011;37033;49.994;21.992;2022-12-13T03:09:23;11.20;;;6.20;;
50709;SDS011;37033;49.994;21.992;2022-12-13T03:12:23;8.00;;;5.70;;
50709;SDS011;37033;49.994;21.992;2022-12-13T03:15:37;8.40;;;5.90;;
50709;SDS011;37033;49.994;21.992;2022-12-13T03:18:35;8.60;;;5.80;;
50709;SDS011;37033;49.994;21.992;2022-12-13T03:21:26;10.30;;;5.40;;
50709;SDS011;37033;49.994;21.992;2022-12-13T03:24:17;7.30;;;5.60;;
50709;SDS011;37033;49.994;21.992;2022-12-13T03:27:08;7.30;;;5.10;;
50709;SDS011;37033;49.994;21.992;2022-12-13T03:29:59;7.70;;;5.40;;
50709;SDS011;37033;49.994;21.992;2022-12-13T03:32:49;11.70;;;6.40;;
50709;SDS011;37033;49.994;21.992;2022-12-13T03:35:39;8.70;;;5.60;;
50709;SDS011;37033;49.994;21.992;2022-12-13T03:38:31;9.10;;;5.70;;
50709;SDS011;37033;49.994;21.992;2022-12-13T03:41:21;8.80;;;5.00;;
50709;SDS011;37033;49.994;21.992;2022-12-13T03:44:17;7.60;;;4.60;;
50709;SDS011;37033;49.994;21.992;2022-12-13T03:47:08;7.70;;;5.00;;
50709;SDS011;37033;49.994;21.992;2022-12-13T03:49:58;9.10;;;5.70;;
50709;SDS011;37033;49.994;21.992;2022-12-13T03:52:48;8.90;;;5.90;;
50709;SDS011;37033;49.994;21.992;2022-12-13T03:55:38;7.70;;;5.20;;
50709;SDS011;37033;49.994;21.992;2022-12-13T03:58:28;9.40;;;6.20;;
50709;SDS011;37033;49.994;21.992;2022-12-13T04:01:18;7.20;;;5.20;;
50709;SDS011;37033;49.994;21.992;2022-12-13T04:04:09;9.60;;;6.20;;
50709;SDS011;37033;49.994;21.992;2022-12-13T04:06:59;11.50;;;6.50;;
50709;SDS011;37033;49.994;21.992;2022-12-13T04:09:48;11.40;;;6.50;;
50709;SDS011;37033;49.994;21.992;2022-12-13T04:12:38;9.60;;;6.30;;
50709;SDS011;37033;49.994;21.992;2022-12-13T04:15:46;10.60;;;7.10;;
50709;SDS011;37033;49.994;21.992;2022-12-13T04:18:35;11.70;;;6.60;;
50709;SDS011;37033;49.994;21.992;2022-12-13T04:21:25;9.60;;;6.00;;
50709;SDS011;37033;49.994;21.992;2022-12-13T04:24:15;20.30;;;9.60;;
50709;SDS011;37033;49.994;21.992;2022-12-13T04:27:04;22.90;;;11.40;;
50709;SDS011;37033;49.994;21.992;2022-12-13T04:29:54;23.20;;;11.80;;
50709;SDS011;37033;49.994;21.992;2022-12-13T04:32:44;23.10;;;11.40;;
50709;SDS011;37033;49.994;21.992;2022-12-13T04:35:34;20.20;;;11.20;;
50709;SDS011;37033;49.994;21.992;2022-12-13T04:38:23;24.40;;;13.30;;
50709;SDS011;37033;49.994;21.992;2022-12-13T04:41:14;22.80;;;10.60;;
50709;SDS011;37033;49.994;21.992;2022-12-13T04:44:06;23.40;;;11.00;;
50709;SDS011;37033;49.994;21.992;2022-12-13T04:46:57;22.50;;;10.60;;
50709;SDS011;37033;49.994;21.992;2022-12-13T04:49:49;17.20;;;10.00;;
50709;SDS011;37033;49.994;21.992;2022-12-13T04:52:39;27.10;;;12.70;;
50709;SDS011;37033;49.994;21.992;2022-12-13T04:55:30;19.60;;;10.60;;
50709;SDS011;37033;49.994;21.992;2022-12-13T04:58:19;17.10;;;8.90;;
50709;SDS011;37033;49.994;21.992;2022-12-13T05:01:09;14.50;;;9.20;;
50709;SDS011;37033;49.994;21.992;2022-12-13T05:03:59;18.10;;;9.80;;
50709;SDS011;37033;49.994;21.992;2022-12-13T05:06:50;17.30;;;9.30;;
50709;SDS011;37033;49.994;21.992;2022-12-13T05:09:40;19.30;;;10.60;;
50709;SDS011;37033;49.994;21.992;2022-12-13T05:12:30;16.90;;;9.50;;
50709;SDS011;37033;49.994;21.992;2022-12-13T05:15:20;16.70;;;9.00;;
50709;SDS011;37033;49.994;21.992;2022-12-13T05:18:10;17.70;;;8.30;;
50709;SDS011;37033;49.994;21.992;2022-12-13T05:21:01;15.60;;;8.30;;
50709;SDS011;37033;49.994;21.992;2022-12-13T05:23:53;15.70;;;8.10;;
50709;SDS011;37033;49.994;21.992;2022-12-13T05:26:43;16.40;;;9.30;;
50709;SDS011;37033;49.994;21.992;2022-12-13T05:29:33;14.50;;;9.10;;
50709;SDS011;37033;49.994;21.992;2022-12-13T05:32:23;15.40;;;9.30;;
50709;SDS011;37033;49.994;21.992;2022-12-13T05:35:13;14.90;;;9.40;;
50709;SDS011;37033;49.994;21.992;2022-12-13T05:38:03;15.70;;;9.50;;
50709;SDS011;37033;49.994;21.992;2022-12-13T05:40:53;17.30;;;9.70;;
50709;SDS011;37033;49.994;21.992;2022-12-13T05:43:43;20.60;;;10.30;;
50709;SDS011;37033;49.994;21.992;2022-12-13T05:46:34;19.30;;;10.20;;
50709;SDS011;37033;49.994;21.992;2022-12-13T05:49:24;16.60;;;8.90;;
50709;SDS011;37033;49.994;21.992;2022-12-13T05:52:16;12.80;;;7.80;;
50709;SDS011;37033;49.994;21.992;2022-12-13T05:55:07;16.70;;;9.70;;
50709;SDS011;37033;49.994;21.992;2022-12-13T05:57:57;19.10;;;10.30;;
50709;SDS011;37033;49.994;21.992;2022-12-13T06:00:48;20.00;;;10.80;;
50709;SDS011;37033;49.994;21.992;2022-12-13T06:03:38;17.90;;;10.50;;
50709;SDS011;37033;49.994;21.992;2022-12-13T06:06:28;21.10;;;11.20;;
50709;SDS011;37033;49.994;21.992;2022-12-13T06:09:18;20.10;;;11.70;;
50709;SDS011;37033;49.994;21.992;2022-12-13T06:12:08;17.60;;;10.20;;
50709;SDS011;37033;49.994;21.992;2022-12-13T06:14:58;16.70;;;9.80;;
50709;SDS011;37033;49.994;21.992;2022-12-13T06:17:48;18.30;;;9.80;;
50709;SDS011;37033;49.994;21.992;2022-12-13T06:20:38;23.90;;;11.40;;
50709;SDS011;37033;49.994;21.992;2022-12-13T06:23:29;20.00;;;9.40;;
50709;SDS011;37033;49.994;21.992;2022-12-13T06:26:19;31.80;;;14.10;;
50709;SDS011;37033;49.994;21.992;2022-12-13T06:29:09;40.30;;;18.80;;
50709;SDS011;37033;49.994;21.992;2022-12-13T06:32:00;32.50;;;15.30;;
50709;SDS011;37033;49.994;21.992;2022-12-13T06:34:50;24.40;;;12.20;;
50709;SDS011;37033;49.994;21.992;2022-12-13T06:37:41;26.50;;;12.60;;
50709;SDS011;37033;49.994;21.992;2022-12-13T06:40:31;23.50;;;11.40;;
50709;SDS011;37033;49.994;21.992;2022-12-13T06:43:21;25.60;;;12.40;;
50709;SDS011;37033;49.994;21.992;2022-12-13T06:46:11;29.20;;;12.10;;
50709;SDS011;37033;49.994;21.992;2022-12-13T06:49:01;23.70;;;11.30;;
50709;SDS011;37033;49.994;21.992;2022-12-13T06:51:51;17.00;;;10.20;;
50709;SDS011;37033;49.994;21.992;2022-12-13T06:54:41;20.50;;;10.40;;
50709;SDS011;37033;49.994;21.992;2022-12-13T06:57:32;19.00;;;9.90;;
50709;SDS011;37033;49.994;21.992;2022-12-13T07:00:23;17.10;;;9.20;;
50709;SDS011;37033;49.994;21.992;2022-12-13T07:03:13;16.80;;;9.20;;
50709;SDS011;37033;49.994;21.992;2022-12-13T07:06:04;18.90;;;9.10;;
50709;SDS011;37033;49.994;21.992;2022-12-13T07:08:58;19.90;;;9.80;;
50709;SDS011;37033;49.994;21.992;2022-12-13T07:11:48;16.80;;;8.40;;
50709;SDS011;37033;49.994;21.992;2022-12-13T07:14:39;16.10;;;8.90;;
50709;SDS011;37033;49.994;21.992;2022-12-13T07:17:29;17.50;;;9.70;;
50709;SDS011;37033;49.994;21.992;2022-12-13T07:20:19;17.10;;;8.40;;
50709;SDS011;37033;49.994;21.992;2022-12-13T07:23:09;17.10;;;8.00;;
50709;SDS011;37033;49.994;21.992;2022-12-13T07:25:59;16.10;;;9.00;;
50709;SDS011;37033;49.994;21.992;2022-12-13T07:28:50;15.50;;;8.60;;
50709;SDS011;37033;49.994;21.992;2022-12-13T07:31:40;20.40;;;9.30;;
50709;SDS011;37033;49.994;21.992;2022-12-13T07:34:30;18.80;;;9.50;;
50709;SDS011;37033;49.994;21.992;2022-12-13T07:37:20;15.50;;;9.10;;
50709;SDS011;37033;49.994;21.992;2022-12-13T07:40:11;15.50;;;9.40;;
50709;SDS011;37033;49.994;21.992;2022-12-13T07:43:01;16.80;;;9.60;;
50709;SDS011;37033;49.994;21.992;2022-12-13T07:45:51;19.10;;;8.80;;
50709;SDS011;37033;49.994;21.992;2022-12-13T07:48:41;20.00;;;11.00;;
50709;SDS011;37033;49.994;21.992;2022-12-13T07:51:32;16.40;;;8.70;;
50709;SDS011;37033;49.994;21.992;2022-12-13T07:54:22;20.50;;;9.50;;
50709;SDS011;37033;49.994;21.992;2022-12-13T07:57:12;17.40;;;9.00;;
50709;SDS011;37033;49.994;21.992;2022-12-13T08:00:03;17.50;;;9.80;;
50709;SDS011;37033;49.994;21.992;2022-12-13T08:02:54;19.70;;;9.40;;
50709;SDS011;37033;49.994;21.992;2022-12-13T08:05:44;23.00;;;11.10;;
50709;SDS011;37033;49.994;21.992;2022-12-13T08:08:34;20.00;;;11.10;;
50709;SDS011;37033;49.994;21.992;2022-12-13T08:11:25;19.80;;;10.30;;
50709;SDS011;37033;49.994;21.992;2022-12-13T08:14:15;34.40;;;14.40;;
50709;SDS011;37033;49.994;21.992;2022-12-13T08:17:05;27.40;;;13.50;;
50709;SDS011;37033;49.994;21.992;2022-12-13T08:19:55;21.70;;;11.30;;
50709;SDS011;37033;49.994;21.992;2022-12-13T08:22:45;28.40;;;12.10;;
50709;SDS011;37033;49.994;21.992;2022-12-13T08:25:43;18.50;;;9.90;;
50709;SDS011;37033;49.994;21.992;2022-12-13T08:28:39;21.60;;;10.60;;
50709;SDS011;37033;49.994;21.992;2022-12-13T08:31:29;26.20;;;11.30;;
50709;SDS011;37033;49.994;21.992;2022-12-13T08:34:20;18.30;;;10.50;;
50709;SDS011;37033;49.994;21.992;2022-12-13T08:37:10;20.30;;;10.60;;
50709;SDS011;37033;49.994;21.992;2022-12-13T08:40:00;21.90;;;10.70;;
50709;SDS011;37033;49.994;21.992;2022-12-13T08:42:53;25.10;;;12.40;;
50709;SDS011;37033;49.994;21.992;2022-12-13T08:45:43;21.00;;;11.60;;
50709;SDS011;37033;49.994;21.992;2022-12-13T08:48:33;24.90;;;12.90;;
50709;SDS011;37033;49.994;21.992;2022-12-13T08:51:22;19.70;;;11.00;;
50709;SDS011;37033;49.994;21.992;2022-12-13T08:54:12;26.90;;;13.60;;
50709;SDS011;37033;49.994;21.992;2022-12-13T08:57:02;38.30;;;15.70;;
50709;SDS011;37033;49.994;21.992;2022-12-13T08:59:53;28.20;;;13.70;;
50709;SDS011;37033;49.994;21.992;2022-12-13T09:02:43;34.70;;;16.00;;
50709;SDS011;37033;49.994;21.992;2022-12-13T09:05:32;39.80;;;17.40;;
50709;SDS011;37033;49.994;21.992;2022-12-13T09:08:23;34.00;;;15.30;;
50709;SDS011;37033;49.994;21.992;2022-12-13T09:11:13;36.90;;;15.80;;
50709;SDS011;37033;49.994;21.992;2022-12-13T09:14:03;42.60;;;17.20;;
50709;SDS011;37033;49.994;21.992;2022-12-13T09:16:52;22.70;;;11.20;;
50709;SDS011;37033;49.994;21.992;2022-12-13T09:19:42;21.70;;;10.70;;
50709;SDS011;37033;49.994;21.992;2022-12-13T09:22:32;21.60;;;11.90;;
50709;SDS011;37033;49.994;21.992;2022-12-13T09:25:22;23.00;;;10.50;;
50709;SDS011;37033;49.994;21.992;2022-12-13T09:28:12;34.20;;;15.60;;
50709;SDS011;37033;49.994;21.992;2022-12-13T09:31:04;34.50;;;14.80;;
50709;SDS011;37033;49.994;21.992;2022-12-13T09:33:55;34.40;;;15.70;;
50709;SDS011;37033;49.994;21.992;2022-12-13T09:36:45;33.80;;;14.70;;
50709;SDS011;37033;49.994;21.992;2022-12-13T09:39:35;26.50;;;13.40;;
50709;SDS011;37033;49.994;21.992;2022-12-13T09:42:26;26.20;;;13.10;;
50709;SDS011;37033;49.994;21.992;2022-12-13T09:45:19;22.50;;;10.90;;
50709;SDS011;37033;49.994;21.992;2022-12-13T09:48:11;17.10;;;8.90;;
50709;SDS011;37033;49.994;21.992;2022-12-13T09:51:07;21.40;;;10.70;;
50709;SDS011;37033;49.994;21.992;2022-12-13T09:53:58;18.60;;;10.00;;
50709;SDS011;37033;49.994;21.992;2022-12-13T09:56:50;20.00;;;11.50;;
50709;SDS011;37033;49.994;21.992;2022-12-13T09:59:41;23.80;;;12.10;;
50709;SDS011;37033;49.994;21.992;2022-12-13T10:02:31;23.60;;;11.20;;
50709;SDS011;37033;49.994;21.992;2022-12-13T10:05:29;27.00;;;11.20;;
50709;SDS011;37033;49.994;21.992;2022-12-13T10:08:23;19.70;;;10.60;;
50709;SDS011;37033;49.994;21.992;2022-12-13T10:11:19;33.80;;;12.40;;
50709;SDS011;37033;49.994;21.992;2022-12-13T10:14:11;18.70;;;9.40;;
50709;SDS011;37033;49.994;21.992;2022-12-13T10:17:06;20.30;;;10.40;;
50709;SDS011;37033;49.994;21.992;2022-12-13T10:20:00;25.20;;;11.10;;
50709;SDS011;37033;49.994;21.992;2022-12-13T10:22:52;18.60;;;10.30;;
50709;SDS011;37033;49.994;21.992;2022-12-13T10:25:45;29.90;;;13.20;;
50709;SDS011;37033;49.994;21.992;2022-12-13T10:28:37;16.00;;;9.80;;
50709;SDS011;37033;49.994;21.992;2022-12-13T10:31:28;17.40;;;9.90;;
50709;SDS011;37033;49.994;21.992;2022-12-13T10:34:27;22.10;;;11.00;;
50709;SDS011;37033;49.994;21.992;2022-12-13T10:37:29;18.20;;;10.40;;
50709;SDS011;37033;49.994;21.992;2022-12-13T10:40:26;26.60;;;12.10;;
50709;SDS011;37033;49.994;21.992;2022-12-13T10:43:21;35.90;;;15.60;;
50709;SDS011;37033;49.994;21.992;2022-12-13T10:46:16;22.10;;;11.90;;
50709;SDS011;37033;49.994;21.992;2022-12-13T10:49:13;26.50;;;12.90;;
50709;SDS011;37033;49.994;21.992;2022-12-13T10:52:06;18.80;;;9.90;;
50709;SDS011;37033;49.994;21.992;2022-12-13T10:55:26;15.70;;;9.20;;
50709;SDS011;37033;49.994;21.992;2022-12-13T10:58:19;18.40;;;9.20;;
50709;SDS011;37033;49.994;21.992;2022-12-13T11:01:18;15.00;;;8.50;;
50709;SDS011;37033;49.994;21.992;2022-12-13T11:04:19;17.30;;;9.30;;
50709;SDS011;37033;49.994;21.992;2022-12-13T11:07:21;17.50;;;10.00;;
50709;SDS011;37033;49.994;21.992;2022-12-13T11:10:20;15.00;;;8.30;;
50709;SDS011;37033;49.994;21.992;2022-12-13T11:13:20;15.50;;;9.10;;
50709;SDS011;37033;49.994;21.992;2022-12-13T11:16:22;16.90;;;9.40;;
50709;SDS011;37033;49.994;21.992;2022-12-13T11:19:15;19.80;;;10.00;;
50709;SDS011;37033;49.994;21.992;2022-12-13T11:22:08;17.90;;;9.30;;
50709;SDS011;37033;49.994;21.992;2022-12-13T11:25:07;17.50;;;10.00;;
50709;SDS011;37033;49.994;21.992;2022-12-13T11:28:11;16.00;;;8.50;;
50709;SDS011;37033;49.994;21.992;2022-12-13T11:31:12;15.90;;;9.20;;
50709;SDS011;37033;49.994;21.992;2022-12-13T11:34:12;16.10;;;7.80;;
50709;SDS011;37033;49.994;21.992;2022-12-13T11:37:13;11.50;;;6.50;;
50709;SDS011;37033;49.994;21.992;2022-12-13T11:40:12;13.20;;;7.70;;
50709;SDS011;37033;49.994;21.992;2022-12-13T11:43:07;11.00;;;7.00;;
50709;SDS011;37033;49.994;21.992;2022-12-13T11:46:05;11.90;;;7.50;;
50709;SDS011;37033;49.994;21.992;2022-12-13T11:49:07;11.70;;;6.50;;
50709;SDS011;37033;49.994;21.992;2022-12-13T11:52:04;10.80;;;6.90;;
50709;SDS011;37033;49.994;21.992;2022-12-13T11:55:00;12.20;;;8.10;;
50709;SDS011;37033;49.994;21.992;2022-12-13T11:57:53;16.10;;;8.00;;
50709;SDS011;37033;49.994;21.992;2022-12-13T12:00:53;12.90;;;7.30;;
50709;SDS011;37033;49.994;21.992;2022-12-13T12:06:38;17.60;;;7.90;;
50709;SDS011;37033;49.994;21.992;2022-12-13T12:09:33;15.20;;;8.30;;
50709;SDS011;37033;49.994;21.992;2022-12-13T12:12:26;19.20;;;8.40;;
50709;SDS011;37033;49.994;21.992;2022-12-13T12:15:21;20.50;;;10.10;;
50709;SDS011;37033;49.994;21.992;2022-12-13T12:18:15;16.20;;;8.90;;
50709;SDS011;37033;49.994;21.992;2022-12-13T12:21:10;14.90;;;8.80;;
50709;SDS011;37033;49.994;21.992;2022-12-13T12:24:15;21.60;;;10.70;;
50709;SDS011;37033;49.994;21.992;2022-12-13T12:30:22;29.00;;;11.70;;
50709;SDS011;37033;49.994;21.992;2022-12-13T12:33:22;39.10;;;15.70;;
50709;SDS011;37033;49.994;21.992;2022-12-13T12:36:25;39.70;;;17.10;;
50709;SDS011;37033;49.994;21.992;2022-12-13T12:39:29;33.20;;;13.90;;
50709;SDS011;37033;49.994;21.992;2022-12-13T12:42:42;19.50;;;9.30;;
50709;SDS011;37033;49.994;21.992;2022-12-13T12:45:42;22.30;;;11.20;;
50709;SDS011;37033;49.994;21.992;2022-12-13T12:48:55;22.20;;;10.10;;
50709;SDS011;37033;49.994;21.992;2022-12-13T12:52:01;18.70;;;8.10;;
50709;SDS011;37033;49.994;21.992;2022-12-13T12:55:02;14.20;;;8.20;;
50709;SDS011;37033;49.994;21.992;2022-12-13T12:58:03;14.50;;;8.00;;
50709;SDS011;37033;49.994;21.992;2022-12-13T13:01:06;12.10;;;7.20;;
50709;SDS011;37033;49.994;21.992;2022-12-13T13:04:07;13.10;;;7.80;;
50709;SDS011;37033;49.994;21.992;2022-12-13T13:07:01;14.90;;;7.50;;
50709;SDS011;37033;49.994;21.992;2022-12-13T13:09:57;25.80;;;11.90;;
50709;SDS011;37033;49.994;21.992;2022-12-13T13:12:49;14.50;;;8.10;;
50709;SDS011;37033;49.994;21.992;2022-12-13T13:15:56;11.30;;;7.60;;
50709;SDS011;37033;49.994;21.992;2022-12-13T13:18:48;10.40;;;6.70;;
50709;SDS011;37033;49.994;21.992;2022-12-13T13:21:41;13.50;;;7.90;;
50709;SDS011;37033;49.994;21.992;2022-12-13T13:24:33;12.30;;;7.80;;
50709;SDS011;37033;49.994;21.992;2022-12-13T13:27:26;16.60;;;9.10;;
50709;SDS011;37033;49.994;21.992;2022-12-13T13:30:19;12.60;;;8.20;;
50709;SDS011;37033;49.994;21.992;2022-12-13T13:33:35;13.00;;;7.90;;
50709;SDS011;37033;49.994;21.992;2022-12-13T13:36:45;16.50;;;7.50;;
50709;SDS011;37033;49.994;21.992;2022-12-13T13:48:57;15.60;;;8.20;;
50709;SDS011;37033;49.994;21.992;2022-12-13T13:52:03;16.50;;;8.50;;
50709;SDS011;37033;49.994;21.992;2022-12-13T13:55:23;15.50;;;9.40;;
50709;SDS011;37033;49.994;21.992;2022-12-13T14:02:11;14.90;;;8.20;;
50709;SDS011;37033;49.994;21.992;2022-12-13T14:05:28;17.70;;;9.20;;
50709;SDS011;37033;49.994;21.992;2022-12-13T14:08:37;18.00;;;9.60;;
50709;SDS011;37033;49.994;21.992;2022-12-13T14:21:44;17.40;;;8.10;;
50709;SDS011;37033;49.994;21.992;2022-12-13T14:24:50;12.30;;;7.70;;
50709;SDS011;37033;49.994;21.992;2022-12-13T14:27:46;19.50;;;9.10;;
50709;SDS011;37033;49.994;21.992;2022-12-13T14:30:41;19.40;;;9.70;;
50709;SDS011;37033;49.994;21.992;2022-12-13T14:33:32;23.10;;;10.70;;
50709;SDS011;37033;49.994;21.992;2022-12-13T14:36:26;25.70;;;11.70;;
50709;SDS011;37033;49.994;21.992;2022-12-13T14:39:21;27.10;;;12.90;;
50709;SDS011;37033;49.994;21.992;2022-12-13T14:42:19;23.10;;;12.00;;
50709;SDS011;37033;49.994;21.992;2022-12-13T14:45:17;26.10;;;12.40;;
50709;SDS011;37033;49.994;21.992;2022-12-13T14:48:15;35.20;;;15.50;;
50709;SDS011;37033;49.994;21.992;2022-12-13T14:51:28;38.80;;;15.20;;
50709;SDS011;37033;49.994;21.992;2022-12-13T14:54:19;29.80;;;14.10;;
50709;SDS011;37033;49.994;21.992;2022-12-13T14:57:13;30.30;;;13.20;;
50709;SDS011;37033;49.994;21.992;2022-12-13T15:03:05;41.10;;;19.70;;
50709;SDS011;37033;49.994;21.992;2022-12-13T15:05:58;63.70;;;25.60;;
50709;SDS011;37033;49.994;21.992;2022-12-13T15:08:49;60.40;;;27.10;;
50709;SDS011;37033;49.994;21.992;2022-12-13T15:11:40;69.70;;;29.60;;
50709;SDS011;37033;49.994;21.992;2022-12-13T15:14:31;81.90;;;32.20;;
50709;SDS011;37033;49.994;21.992;2022-12-13T15:17:25;86.40;;;34.10;;
50709;SDS011;37033;49.994;21.992;2022-12-13T15:20:21;112.70;;;38.50;;
50709;SDS011;37033;49.994;21.992;2022-12-13T15:23:16;178.50;;;53.50;;
50709;SDS011;37033;49.994;21.992;2022-12-13T15:26:13;171.80;;;55.70;;
50709;SDS011;37033;49.994;21.992;2022-12-13T15:29:05;178.60;;;59.60;;
50709;SDS011;37033;49.994;21.992;2022-12-13T15:31:58;208.50;;;81.50;;
50709;SDS011;37033;49.994;21.992;2022-12-13T15:34:49;126.50;;;48.10;;
50709;SDS011;37033;49.994;21.992;2022-12-13T15:37:40;94.10;;;35.80;;
50709;SDS011;37033;49.994;21.992;2022-12-13T15:40:34;98.50;;;37.60;;
50709;SDS011;37033;49.994;21.992;2022-12-13T15:43:28;74.60;;;29.70;;
50709;SDS011;37033;49.994;21.992;2022-12-13T15:46:24;90.40;;;36.70;;
50709;SDS011;37033;49.994;21.992;2022-12-13T15:49:20;98.10;;;37.90;;
50709;SDS011;37033;49.994;21.992;2022-12-13T15:52:24;93.10;;;37.10;;
50709;SDS011;37033;49.994;21.992;2022-12-13T15:55:24;87.90;;;37.20;;
50709;SDS011;37033;49.994;21.992;2022-12-13T15:58:24;98.30;;;41.60;;
50709;SDS011;37033;49.994;21.992;2022-12-13T16:01:24;95.50;;;38.00;;
50709;SDS011;37033;49.994;21.992;2022-12-13T16:04:19;90.30;;;36.30;;
50709;SDS011;37033;49.994;21.992;2022-12-13T16:07:18;63.30;;;31.70;;
50709;SDS011;37033;49.994;21.992;2022-12-13T16:10:16;47.20;;;23.40;;
50709;SDS011;37033;49.994;21.992;2022-12-13T16:13:15;45.00;;;21.80;;
50709;SDS011;37033;49.994;21.992;2022-12-13T16:16:21;45.40;;;21.50;;
50709;SDS011;37033;49.994;21.992;2022-12-13T16:19:16;57.50;;;23.60;;
50709;SDS011;37033;49.994;21.992;2022-12-13T16:22:07;40.20;;;17.70;;
50709;SDS011;37033;49.994;21.992;2022-12-13T16:24:57;49.50;;;23.90;;
50709;SDS011;37033;49.994;21.992;2022-12-13T16:27:47;35.00;;;17.10;;
50709;SDS011;37033;49.994;21.992;2022-12-13T16:30:59;51.40;;;20.90;;
50709;SDS011;37033;49.994;21.992;2022-12-13T16:33:56;53.10;;;22.80;;
50709;SDS011;37033;49.994;21.992;2022-12-13T16:36:46;56.80;;;24.50;;
50709;SDS011;37033;49.994;21.992;2022-12-13T16:39:36;65.10;;;24.90;;
50709;SDS011;37033;49.994;21.992;2022-12-13T16:42:26;72.90;;;28.00;;
50709;SDS011;37033;49.994;21.992;2022-12-13T16:45:16;66.30;;;25.40;;
50709;SDS011;37033;49.994;21.992;2022-12-13T16:48:07;100.90;;;38.20;;
50709;SDS011;37033;49.994;21.992;2022-12-13T16:50:57;63.90;;;25.70;;
50709;SDS011;37033;49.994;21.992;2022-12-13T16:53:51;81.40;;;30.60;;
50709;SDS011;37033;49.994;21.992;2022-12-13T16:56:41;65.20;;;25.60;;
50709;SDS011;37033;49.994;21.992;2022-12-13T16:59:30;50.90;;;22.20;;
50709;SDS011;37033;49.994;21.992;2022-12-13T17:02:21;51.80;;;23.80;;
50709;SDS011;37033;49.994;21.992;2022-12-13T17:05:11;73.00;;;26.50;;
50709;SDS011;37033;49.994;21.992;2022-12-13T17:08:01;65.60;;;25.30;;
50709;SDS011;37033;49.994;21.992;2022-12-13T17:10:51;112.40;;;46.50;;
50709;SDS011;37033;49.994;21.992;2022-12-13T17:13:42;69.60;;;29.30;;
50709;SDS011;37033;49.994;21.992;2022-12-13T17:16:33;62.00;;;24.20;;
50709;SDS011;37033;49.994;21.992;2022-12-13T17:19:23;46.20;;;19.70;;
50709;SDS011;37033;49.994;21.992;2022-12-13T17:22:14;50.00;;;20.60;;
50709;SDS011;37033;49.994;21.992;2022-12-13T17:25:04;58.20;;;22.10;;
50709;SDS011;37033;49.994;21.992;2022-12-13T17:27:55;44.20;;;21.80;;
50709;SDS011;37033;49.994;21.992;2022-12-13T17:30:45;48.30;;;21.90;;